Seattle, Washington
Traffic Map
Current Weather Conditions
Seattle, Washington
Scattered Clouds
Scattered Clouds
17°
Feels Like: 17°
Wind Chill: 17° Ceiling: Unl
Heat Index: 17° Visibility: 10mi
Dew Point: Wind: 0mph
Humidity: 54% Direction: ° ()
Pressure: 30.2in Gusts: 0mph
Raw Report DataKBFI 310453Z 00000KT 10SM SCT200 17/08 A3020 RMK AO2 SLP226 T01720078 $
Traffic Incident Summary
Active as of:
Severity:
Category:
InformationThere was an issue retrieving the traffic information for this location. Please try a different location or try again shortly.
Advertisements
Track Severe Weather on mobile